createdAt,value
2017-10-31T00:00:07.786Z,1021.2
2017-10-31T00:00:33.919Z,1021.19
2017-10-31T00:01:00.046Z,1021.22
2017-10-31T00:01:26.171Z,1021.21
2017-10-31T00:01:52.305Z,1021.2
2017-10-31T00:02:18.435Z,1021.22
2017-10-31T00:02:44.577Z,1021.17
2017-10-31T00:03:10.705Z,1021.18
2017-10-31T00:03:36.835Z,1021.14
2017-10-31T00:04:02.961Z,1021.17
2017-10-31T00:04:29.092Z,1021.15
2017-10-31T00:04:55.230Z,1021.11
2017-10-31T00:05:21.349Z,1021.15
2017-10-31T00:05:47.484Z,1021.11
2017-10-31T00:06:13.605Z,1021.12
2017-10-31T00:06:39.752Z,1021.11
2017-10-31T00:07:05.886Z,1021.13
2017-10-31T00:07:32.016Z,1021.11
2017-10-31T00:07:58.166Z,1021.12
2017-10-31T00:08:24.310Z,1021.12
2017-10-31T00:08:50.439Z,1021.12
2017-10-31T00:09:16.571Z,1021.14
2017-10-31T00:09:42.702Z,1021.1
2017-10-31T00:10:08.827Z,1021.13
2017-10-31T00:10:34.959Z,1021.17
2017-10-31T00:11:01.086Z,1021.14
2017-10-31T00:11:27.210Z,1021.13
2017-10-31T00:11:53.340Z,1021.06
2017-10-31T00:12:19.466Z,1021.12
2017-10-31T00:12:45.591Z,1021.1
2017-10-31T00:13:11.747Z,1021.09
2017-10-31T00:13:37.871Z,1021.08
2017-10-31T00:14:03.990Z,1021.09
2017-10-31T00:14:30.123Z,1021.09
2017-10-31T00:14:56.250Z,1021.1
2017-10-31T00:15:22.374Z,1021.13
2017-10-31T00:15:48.507Z,1021.04
2017-10-31T00:16:14.637Z,1021.06
2017-10-31T00:16:40.770Z,1021.04
2017-10-31T00:17:06.887Z,1021.04
2017-10-31T00:17:33.044Z,1021.04
2017-10-31T00:17:59.172Z,1021.05
2017-10-31T00:18:25.295Z,1021.1
2017-10-31T00:18:51.421Z,1021.09
2017-10-31T00:19:17.551Z,1021.12
2017-10-31T00:19:43.686Z,1021.07
2017-10-31T00:20:09.830Z,1021.05
2017-10-31T00:20:35.956Z,1021.08
2017-10-31T00:21:02.095Z,1021.06
2017-10-31T00:21:28.225Z,1021.11
2017-10-31T00:21:54.368Z,1021.06
2017-10-31T00:22:20.491Z,1021.06
2017-10-31T00:22:46.623Z,1021.04
2017-10-31T00:23:12.755Z,1021.02
2017-10-31T00:23:38.878Z,1021.02
2017-10-31T00:24:05.011Z,1021.03
2017-10-31T00:24:31.155Z,1021
2017-10-31T00:24:57.295Z,1021.07
2017-10-31T00:25:23.412Z,1021
2017-10-31T00:25:49.537Z,1021
2017-10-31T00:26:15.669Z,1020.99
2017-10-31T00:26:41.798Z,1020.99
2017-10-31T00:27:07.925Z,1021
2017-10-31T00:27:34.049Z,1021.03
2017-10-31T00:28:00.185Z,1021.04
2017-10-31T00:28:26.310Z,1021.01
2017-10-31T00:28:52.438Z,1020.99
2017-10-31T00:29:18.574Z,1021.04
2017-10-31T00:29:44.696Z,1021.03
2017-10-31T00:30:10.821Z,1020.98
2017-10-31T00:30:36.950Z,1021.05
2017-10-31T00:31:03.072Z,1020.96
2017-10-31T00:31:29.204Z,1021
2017-10-31T00:31:55.331Z,1021.05
2017-10-31T00:32:21.452Z,1020.99
2017-10-31T00:32:47.588Z,1021.01
2017-10-31T00:33:13.714Z,1021.01
2017-10-31T00:33:39.837Z,1021
2017-10-31T00:34:05.972Z,1020.99
2017-10-31T00:34:32.102Z,1020.97
2017-10-31T00:34:58.225Z,1020.98
2017-10-31T00:35:24.353Z,1020.98
2017-10-31T00:35:50.484Z,1020.96
2017-10-31T00:36:16.618Z,1020.98
2017-10-31T00:36:42.748Z,1021.01
2017-10-31T00:37:08.877Z,1020.98
2017-10-31T00:37:35.000Z,1020.95
2017-10-31T00:38:01.132Z,1020.96
2017-10-31T00:38:27.256Z,1020.98
2017-10-31T00:38:53.382Z,1020.95
2017-10-31T00:39:19.512Z,1020.93
2017-10-31T00:39:45.639Z,1020.95
2017-10-31T00:40:11.773Z,1020.92
2017-10-31T00:40:37.902Z,1020.92
2017-10-31T00:41:04.024Z,1020.94
2017-10-31T00:41:30.156Z,1020.89
2017-10-31T00:41:56.280Z,1020.96
2017-10-31T00:42:22.408Z,1020.97
2017-10-31T00:42:48.536Z,1020.95
2017-10-31T00:43:14.673Z,1020.96
2017-10-31T00:43:40.795Z,1021.01
2017-10-31T00:44:06.950Z,1021
2017-10-31T00:44:33.073Z,1021
2017-10-31T00:44:59.198Z,1021.01
2017-10-31T00:45:25.330Z,1020.99
2017-10-31T00:45:51.461Z,1021.02
2017-10-31T00:46:17.587Z,1021
2017-10-31T00:46:43.713Z,1021.02
2017-10-31T00:47:09.845Z,1020.99
2017-10-31T00:47:35.970Z,1020.99
2017-10-31T00:48:02.100Z,1021.01
2017-10-31T00:48:28.231Z,1020.95
2017-10-31T00:48:54.371Z,1020.99
2017-10-31T00:49:20.494Z,1020.99
2017-10-31T00:49:46.637Z,1020.99
2017-10-31T00:50:12.767Z,1020.98
2017-10-31T00:50:38.888Z,1020.95
2017-10-31T00:51:05.010Z,1020.97
2017-10-31T00:51:31.135Z,1020.98
2017-10-31T00:51:57.261Z,1021
2017-10-31T00:52:23.385Z,1020.98
2017-10-31T00:52:49.521Z,1020.97
2017-10-31T00:53:15.666Z,1020.98
2017-10-31T00:53:41.797Z,1020.97
2017-10-31T00:54:07.928Z,1020.93
2017-10-31T00:54:34.051Z,1020.96
2017-10-31T00:55:00.183Z,1020.95
2017-10-31T00:55:26.307Z,1020.95
2017-10-31T00:55:52.428Z,1020.94
2017-10-31T00:56:18.555Z,1020.94
2017-10-31T00:56:44.688Z,1020.92
2017-10-31T00:57:10.811Z,1020.95
2017-10-31T00:57:36.938Z,1020.95
2017-10-31T00:58:03.066Z,1020.95
2017-10-31T00:58:29.190Z,1020.94
2017-10-31T00:58:55.329Z,1020.95
2017-10-31T00:59:21.451Z,1020.91
2017-10-31T00:59:47.585Z,1020.91
2017-10-31T01:00:13.710Z,1020.93
2017-10-31T01:00:39.834Z,1020.95
2017-10-31T01:01:05.968Z,1020.92
2017-10-31T01:01:32.095Z,1020.91
2017-10-31T01:01:58.227Z,1020.91
2017-10-31T01:02:24.355Z,1020.92
2017-10-31T01:02:50.478Z,1020.89
2017-10-31T01:03:16.609Z,1020.89
2017-10-31T01:03:42.754Z,1020.89
2017-10-31T01:04:08.885Z,1020.88
2017-10-31T01:04:35.057Z,1020.9
2017-10-31T01:05:01.178Z,1020.88
2017-10-31T01:05:27.310Z,1020.86
2017-10-31T01:05:53.450Z,1020.85
2017-10-31T01:06:19.583Z,1020.86
2017-10-31T01:06:45.712Z,1020.84
2017-10-31T01:07:11.836Z,1020.85
2017-10-31T01:07:37.957Z,1020.87
2017-10-31T01:08:04.089Z,1020.87
2017-10-31T01:08:30.217Z,1020.87
2017-10-31T01:08:56.341Z,1020.87
2017-10-31T01:09:22.497Z,1020.87
2017-10-31T01:09:48.619Z,1020.84
2017-10-31T01:10:14.750Z,1020.85
2017-10-31T01:10:40.874Z,1020.85
2017-10-31T01:11:07.008Z,1020.85
2017-10-31T01:11:33.133Z,1020.84
2017-10-31T01:11:59.256Z,1020.86
2017-10-31T01:12:25.386Z,1020.86
2017-10-31T01:12:51.505Z,1020.86
2017-10-31T01:13:17.642Z,1020.85
2017-10-31T01:13:43.765Z,1020.83
2017-10-31T01:14:09.895Z,1020.84
2017-10-31T01:14:36.031Z,1020.83
2017-10-31T01:15:02.155Z,1020.82
2017-10-31T01:15:28.283Z,1020.85
2017-10-31T01:15:54.423Z,1020.83
2017-10-31T01:16:20.555Z,1020.81
2017-10-31T01:16:46.677Z,1020.81
2017-10-31T01:17:12.805Z,1020.79
2017-10-31T01:17:38.931Z,1020.82
2017-10-31T01:18:05.061Z,1020.82
2017-10-31T01:18:31.180Z,1020.81
2017-10-31T01:18:57.306Z,1020.81
2017-10-31T01:19:23.459Z,1020.78
2017-10-31T01:19:49.583Z,1020.78
2017-10-31T01:20:15.721Z,1020.77
2017-10-31T01:20:41.840Z,1020.74
2017-10-31T01:21:07.972Z,1020.74
2017-10-31T01:21:34.109Z,1020.76
2017-10-31T01:22:00.231Z,1020.79
2017-10-31T01:22:26.369Z,1020.78
2017-10-31T01:22:52.501Z,1020.73
2017-10-31T01:23:18.612Z,1020.75
2017-10-31T01:23:44.744Z,1020.76
2017-10-31T01:24:10.868Z,1020.73
2017-10-31T01:24:36.999Z,1020.72
2017-10-31T01:25:03.128Z,1020.71
2017-10-31T01:25:29.261Z,1020.77
2017-10-31T01:25:55.384Z,1020.76
2017-10-31T01:26:21.518Z,1020.74
2017-10-31T01:26:47.645Z,1020.77
2017-10-31T01:27:13.788Z,1020.76
2017-10-31T01:27:39.919Z,1020.76
2017-10-31T01:28:06.043Z,1020.75
2017-10-31T01:28:32.176Z,1020.76
2017-10-31T01:28:58.301Z,1020.74
2017-10-31T01:29:24.432Z,1020.76
2017-10-31T01:29:50.553Z,1020.71
2017-10-31T01:30:16.679Z,1020.67
2017-10-31T01:30:42.812Z,1020.71
2017-10-31T01:31:08.964Z,1020.7
2017-10-31T01:31:35.089Z,1020.69
2017-10-31T01:32:01.233Z,1020.72
2017-10-31T01:32:27.365Z,1020.66
2017-10-31T01:32:53.487Z,1020.67
2017-10-31T01:33:19.618Z,1020.62
2017-10-31T01:33:45.746Z,1020.66
2017-10-31T01:34:11.881Z,1020.66
2017-10-31T01:34:37.998Z,1020.64
2017-10-31T01:35:04.132Z,1020.64
2017-10-31T01:35:30.265Z,1020.66
2017-10-31T01:35:56.387Z,1020.65
2017-10-31T01:36:22.514Z,1020.63
2017-10-31T01:36:48.637Z,1020.63
2017-10-31T01:37:14.769Z,1020.61
2017-10-31T01:37:40.894Z,1020.61
2017-10-31T01:38:07.024Z,1020.58
2017-10-31T01:38:33.154Z,1020.6
2017-10-31T01:38:59.282Z,1020.59
2017-10-31T01:39:25.412Z,1020.59
2017-10-31T01:39:51.539Z,1020.59
2017-10-31T01:40:17.671Z,1020.58
2017-10-31T01:40:43.796Z,1020.6
2017-10-31T01:41:09.953Z,1020.57
2017-10-31T01:41:36.073Z,1020.59
2017-10-31T01:42:02.195Z,1020.62
2017-10-31T01:42:28.321Z,1020.58
2017-10-31T01:42:57.488Z,1020.6
2017-10-31T01:43:23.620Z,1020.62
2017-10-31T01:43:49.733Z,1020.63
2017-10-31T01:44:15.865Z,1020.59
2017-10-31T01:44:41.987Z,1020.61
2017-10-31T01:45:08.112Z,1020.62
2017-10-31T01:45:34.243Z,1020.62
2017-10-31T01:46:00.371Z,1020.59
2017-10-31T01:46:26.499Z,1020.6
2017-10-31T01:46:52.634Z,1020.6
2017-10-31T01:47:18.758Z,1020.58
2017-10-31T01:47:44.892Z,1020.58
2017-10-31T01:48:11.013Z,1020.59
2017-10-31T01:48:37.158Z,1020.62
2017-10-31T01:49:03.294Z,1020.58
2017-10-31T01:49:29.432Z,1020.6
2017-10-31T01:49:55.552Z,1020.59
2017-10-31T01:50:21.677Z,1020.61
2017-10-31T01:50:47.810Z,1020.56
2017-10-31T01:51:13.943Z,1020.57
2017-10-31T01:51:40.067Z,1020.6
2017-10-31T01:52:06.196Z,1020.6
2017-10-31T01:52:32.328Z,1020.58
2017-10-31T01:52:58.454Z,1020.56
2017-10-31T01:53:24.575Z,1020.58
2017-10-31T01:53:50.705Z,1020.58
2017-10-31T01:54:16.825Z,1020.59
2017-10-31T01:54:42.973Z,1020.57
2017-10-31T01:55:09.104Z,1020.58
2017-10-31T01:55:35.236Z,1020.59
2017-10-31T01:56:01.360Z,1020.57
2017-10-31T01:56:27.494Z,1020.58
2017-10-31T01:56:53.617Z,1020.56
2017-10-31T01:57:19.750Z,1020.61
2017-10-31T01:57:45.872Z,1020.62
2017-10-31T01:58:12.002Z,1020.63
2017-10-31T01:58:38.137Z,1020.63
2017-10-31T01:59:04.266Z,1020.62
2017-10-31T01:59:30.387Z,1020.63
2017-10-31T01:59:56.520Z,1020.65
2017-10-31T02:00:22.646Z,1020.63
2017-10-31T02:00:48.777Z,1020.63
2017-10-31T02:01:14.922Z,1020.65
2017-10-31T02:01:41.048Z,1020.64
2017-10-31T02:02:07.182Z,1020.63
2017-10-31T02:02:33.302Z,1020.63
2017-10-31T02:02:59.453Z,1020.65
2017-10-31T02:03:25.584Z,1020.65
2017-10-31T02:03:51.729Z,1020.65
2017-10-31T02:04:17.875Z,1020.65
2017-10-31T02:04:44.009Z,1020.66
2017-10-31T02:05:10.137Z,1020.64
2017-10-31T02:05:36.258Z,1020.69
2017-10-31T02:06:02.391Z,1020.65
2017-10-31T02:06:28.515Z,1020.67
2017-10-31T02:06:54.644Z,1020.68
2017-10-31T02:07:20.793Z,1020.69
2017-10-31T02:07:46.922Z,1020.71
2017-10-31T02:08:13.053Z,1020.71
2017-10-31T02:08:39.183Z,1020.7
2017-10-31T02:09:05.304Z,1020.71
2017-10-31T02:09:31.437Z,1020.72
2017-10-31T02:09:57.565Z,1020.74
2017-10-31T02:10:23.690Z,1020.72
2017-10-31T02:10:49.818Z,1020.73
2017-10-31T02:11:15.940Z,1020.75
2017-10-31T02:11:42.067Z,1020.74
2017-10-31T02:12:08.213Z,1020.69
2017-10-31T02:12:34.342Z,1020.65
2017-10-31T02:13:00.472Z,1020.7
2017-10-31T02:13:26.601Z,1020.7
2017-10-31T02:13:52.731Z,1020.66
2017-10-31T02:14:18.852Z,1020.64
2017-10-31T02:14:44.989Z,1020.64
2017-10-31T02:15:11.111Z,1020.65
2017-10-31T02:15:37.242Z,1020.65
2017-10-31T02:16:03.359Z,1020.66
2017-10-31T02:16:29.483Z,1020.64
2017-10-31T02:16:55.610Z,1020.65
2017-10-31T02:17:21.745Z,1020.64
2017-10-31T02:17:47.875Z,1020.62
2017-10-31T02:18:13.997Z,1020.64
2017-10-31T02:18:40.128Z,1020.66
2017-10-31T02:19:06.257Z,1020.62
2017-10-31T02:19:32.380Z,1020.6
2017-10-31T02:19:58.512Z,1020.59
2017-10-31T02:20:24.634Z,1020.62
2017-10-31T02:20:50.762Z,1020.58
2017-10-31T02:21:16.897Z,1020.61
2017-10-31T02:21:43.044Z,1020.58
2017-10-31T02:22:09.177Z,1020.62
2017-10-31T02:22:35.309Z,1020.62
2017-10-31T02:23:01.429Z,1020.63
2017-10-31T02:23:27.555Z,1020.61
2017-10-31T02:23:53.683Z,1020.63
2017-10-31T02:24:19.808Z,1020.62
2017-10-31T02:24:45.938Z,1020.66
2017-10-31T02:25:12.063Z,1020.66
2017-10-31T02:25:38.192Z,1020.65
2017-10-31T02:26:04.315Z,1020.67
2017-10-31T02:26:30.448Z,1020.66
2017-10-31T02:26:56.578Z,1020.66
2017-10-31T02:27:22.705Z,1020.66
2017-10-31T02:27:48.834Z,1020.7
2017-10-31T02:28:14.963Z,1020.66
2017-10-31T02:28:41.092Z,1020.64
2017-10-31T02:29:07.213Z,1020.61
2017-10-31T02:29:33.341Z,1020.62
2017-10-31T02:29:59.466Z,1020.61
2017-10-31T02:30:25.589Z,1020.68
2017-10-31T02:30:51.720Z,1020.62
2017-10-31T02:31:17.856Z,1020.66
2017-10-31T02:31:43.983Z,1020.67
2017-10-31T02:32:10.106Z,1020.64
2017-10-31T02:32:36.233Z,1020.67
2017-10-31T02:33:02.393Z,1020.66
2017-10-31T02:33:28.515Z,1020.64
2017-10-31T02:33:54.642Z,1020.68
2017-10-31T02:34:20.767Z,1020.66
2017-10-31T02:34:46.900Z,1020.66
2017-10-31T02:35:13.029Z,1020.65
2017-10-31T02:35:39.149Z,1020.65
2017-10-31T02:36:05.284Z,1020.6
2017-10-31T02:36:31.404Z,1020.62
2017-10-31T02:36:57.530Z,1020.61
2017-10-31T02:37:23.660Z,1020.59
2017-10-31T02:37:49.783Z,1020.61
2017-10-31T02:38:15.921Z,1020.59
2017-10-31T02:38:42.046Z,1020.6
2017-10-31T02:39:08.182Z,1020.59
2017-10-31T02:39:34.299Z,1020.6
2017-10-31T02:40:00.456Z,1020.56
2017-10-31T02:40:26.582Z,1020.55
2017-10-31T02:40:52.716Z,1020.56
2017-10-31T02:41:18.840Z,1020.51
2017-10-31T02:41:44.971Z,1020.52
2017-10-31T02:42:11.103Z,1020.52
2017-10-31T02:42:37.234Z,1020.5
2017-10-31T02:43:03.379Z,1020.5
2017-10-31T02:43:29.529Z,1020.48
2017-10-31T02:43:55.663Z,1020.5
2017-10-31T02:44:21.804Z,1020.47
2017-10-31T02:44:47.935Z,1020.5
2017-10-31T02:45:14.072Z,1020.47
2017-10-31T02:45:40.218Z,1020.47
2017-10-31T02:46:06.354Z,1020.44
2017-10-31T02:46:32.492Z,1020.46
2017-10-31T02:46:58.624Z,1020.5
2017-10-31T02:47:24.747Z,1020.45
2017-10-31T02:47:50.872Z,1020.47
2017-10-31T02:48:17.003Z,1020.44
2017-10-31T02:48:43.125Z,1020.45
2017-10-31T02:49:09.256Z,1020.46
2017-10-31T02:49:35.386Z,1020.43
2017-10-31T02:50:01.508Z,1020.48
2017-10-31T02:50:27.669Z,1020.44
2017-10-31T02:50:53.790Z,1020.45
2017-10-31T02:51:19.924Z,1020.41
2017-10-31T02:51:46.053Z,1020.36
2017-10-31T02:52:12.177Z,1020.37
2017-10-31T02:52:38.332Z,1020.39
2017-10-31T02:53:04.457Z,1020.41
2017-10-31T02:53:30.591Z,1020.38
2017-10-31T02:53:56.711Z,1020.41
2017-10-31T02:54:22.858Z,1020.38
2017-10-31T02:54:48.978Z,1020.38
2017-10-31T02:55:15.097Z,1020.33
2017-10-31T02:55:41.229Z,1020.38
2017-10-31T02:56:07.352Z,1020.37
2017-10-31T02:56:33.475Z,1020.39
2017-10-31T02:56:59.602Z,1020.38
2017-10-31T02:57:25.729Z,1020.35
2017-10-31T02:57:51.862Z,1020.36
2017-10-31T02:58:17.986Z,1020.35
2017-10-31T02:58:44.119Z,1020.31
2017-10-31T02:59:10.249Z,1020.31
2017-10-31T02:59:36.369Z,1020.37
2017-10-31T03:00:02.499Z,1020.34
2017-10-31T03:00:28.619Z,1020.39
2017-10-31T03:00:54.750Z,1020.34
2017-10-31T03:01:20.885Z,1020.35
2017-10-31T03:01:47.008Z,1020.34
2017-10-31T03:02:13.138Z,1020.36
2017-10-31T03:02:39.266Z,1020.35
2017-10-31T03:03:05.397Z,1020.38
2017-10-31T03:03:31.527Z,1020.36
2017-10-31T03:03:57.649Z,1020.36
2017-10-31T03:04:23.781Z,1020.36
2017-10-31T03:04:49.906Z,1020.38
2017-10-31T03:05:16.040Z,1020.37
2017-10-31T03:05:42.162Z,1020.39
2017-10-31T03:06:08.288Z,1020.42
2017-10-31T03:06:34.419Z,1020.37
2017-10-31T03:07:00.544Z,1020.39
2017-10-31T03:07:26.677Z,1020.36
2017-10-31T03:07:52.801Z,1020.39
2017-10-31T03:08:18.935Z,1020.38
2017-10-31T03:08:45.082Z,1020.4
2017-10-31T03:09:11.214Z,1020.34
2017-10-31T03:09:37.362Z,1020.36
2017-10-31T03:10:03.489Z,1020.35
2017-10-31T03:10:29.623Z,1020.38
2017-10-31T03:10:55.746Z,1020.37
2017-10-31T03:11:21.873Z,1020.37
2017-10-31T03:11:48.007Z,1020.36
2017-10-31T03:12:14.136Z,1020.37
2017-10-31T03:12:40.263Z,1020.33
2017-10-31T03:13:06.392Z,1020.36
2017-10-31T03:13:32.510Z,1020.33
2017-10-31T03:13:58.641Z,1020.36
2017-10-31T03:14:24.763Z,1020.4
2017-10-31T03:14:50.896Z,1020.36
2017-10-31T03:15:17.020Z,1020.43
2017-10-31T03:15:43.157Z,1020.39
2017-10-31T03:16:09.272Z,1020.4
2017-10-31T03:16:35.403Z,1020.37
2017-10-31T03:17:01.531Z,1020.4
2017-10-31T03:17:27.662Z,1020.38
2017-10-31T03:17:53.790Z,1020.42
2017-10-31T03:18:19.912Z,1020.41
2017-10-31T03:18:46.034Z,1020.39
2017-10-31T03:19:12.185Z,1020.35
2017-10-31T03:19:38.310Z,1020.33
2017-10-31T03:20:04.452Z,1020.33
2017-10-31T03:20:30.567Z,1020.35
2017-10-31T03:20:56.685Z,1020.32
2017-10-31T03:21:22.819Z,1020.36
2017-10-31T03:21:48.945Z,1020.35
2017-10-31T03:22:15.084Z,1020.32
2017-10-31T03:22:41.209Z,1020.31
2017-10-31T03:23:07.329Z,1020.33
2017-10-31T03:23:33.463Z,1020.3
2017-10-31T03:23:59.587Z,1020.3
2017-10-31T03:24:25.714Z,1020.27
2017-10-31T03:24:51.846Z,1020.27
2017-10-31T03:25:17.968Z,1020.27
2017-10-31T03:25:44.104Z,1020.28
2017-10-31T03:26:10.227Z,1020.28
2017-10-31T03:26:36.348Z,1020.27
2017-10-31T03:27:02.479Z,1020.28
2017-10-31T03:27:28.601Z,1020.28
2017-10-31T03:27:54.730Z,1020.27
2017-10-31T03:28:20.861Z,1020.28
2017-10-31T03:28:46.985Z,1020.27
2017-10-31T03:29:13.119Z,1020.27
2017-10-31T03:29:39.247Z,1020.22
2017-10-31T03:30:05.372Z,1020.25
2017-10-31T03:30:31.501Z,1020.29
2017-10-31T03:30:57.620Z,1020.22
2017-10-31T03:31:23.758Z,1020.26
2017-10-31T03:31:49.874Z,1020.26
2017-10-31T03:32:16.010Z,1020.27
2017-10-31T03:32:42.132Z,1020.25
2017-10-31T03:33:08.260Z,1020.26
2017-10-31T03:33:34.389Z,1020.27
2017-10-31T03:34:00.516Z,1020.26
2017-10-31T03:34:26.641Z,1020.28
2017-10-31T03:34:52.762Z,1020.24
2017-10-31T03:35:18.898Z,1020.26
2017-10-31T03:35:45.036Z,1020.23
2017-10-31T03:36:11.152Z,1020.19
2017-10-31T03:36:37.277Z,1020.23
2017-10-31T03:37:03.407Z,1020.23
2017-10-31T03:37:29.538Z,1020.26
2017-10-31T03:37:55.664Z,1020.24
2017-10-31T03:38:21.798Z,1020.24
2017-10-31T03:38:47.924Z,1020.23
2017-10-31T03:39:14.050Z,1020.26
2017-10-31T03:39:40.180Z,1020.26
2017-10-31T03:40:06.308Z,1020.29
2017-10-31T03:40:32.434Z,1020.3
2017-10-31T03:40:58.564Z,1020.27
2017-10-31T03:41:24.690Z,1020.31
2017-10-31T03:41:50.824Z,1020.34
2017-10-31T03:42:16.948Z,1020.31
2017-10-31T03:42:43.077Z,1020.3
2017-10-31T03:43:09.203Z,1020.34
2017-10-31T03:43:35.332Z,1020.33
2017-10-31T03:44:01.468Z,1020.31
2017-10-31T03:44:27.620Z,1020.31
2017-10-31T03:44:53.726Z,1020.31
2017-10-31T03:45:19.852Z,1020.27
2017-10-31T03:45:45.977Z,1020.3
2017-10-31T03:46:12.102Z,1020.31
2017-10-31T03:46:38.236Z,1020.3
2017-10-31T03:47:04.363Z,1020.26
2017-10-31T03:47:30.505Z,1020.3
2017-10-31T03:47:56.621Z,1020.29
2017-10-31T03:48:22.768Z,1020.34
2017-10-31T03:48:48.912Z,1020.33
2017-10-31T03:49:15.047Z,1020.31
2017-10-31T03:49:41.199Z,1020.28
2017-10-31T03:50:07.320Z,1020.33
2017-10-31T03:50:33.445Z,1020.29
2017-10-31T03:50:59.574Z,1020.3
2017-10-31T03:51:25.702Z,1020.26
2017-10-31T03:51:51.834Z,1020.31
2017-10-31T03:52:17.964Z,1020.29
2017-10-31T03:52:44.082Z,1020.27
2017-10-31T03:53:10.212Z,1020.3
2017-10-31T03:53:36.361Z,1020.3
2017-10-31T03:54:02.487Z,1020.27
2017-10-31T03:54:28.618Z,1020.28
2017-10-31T03:54:54.743Z,1020.29
2017-10-31T03:55:20.871Z,1020.28
2017-10-31T03:55:47.006Z,1020.29
2017-10-31T03:56:13.130Z,1020.27
2017-10-31T03:56:39.257Z,1020.27
2017-10-31T03:57:05.388Z,1020.29
2017-10-31T03:57:31.518Z,1020.31
2017-10-31T03:57:57.648Z,1020.27
2017-10-31T03:58:23.781Z,1020.27
2017-10-31T03:58:49.908Z,1020.29
2017-10-31T03:59:16.031Z,1020.26
2017-10-31T03:59:42.154Z,1020.27
2017-10-31T04:00:08.304Z,1020.27
2017-10-31T04:00:34.435Z,1020.3
2017-10-31T04:01:00.567Z,1020.3
2017-10-31T04:01:26.685Z,1020.33
2017-10-31T04:01:52.810Z,1020.33
2017-10-31T04:02:18.945Z,1020.32
2017-10-31T04:02:45.069Z,1020.31
2017-10-31T04:03:11.201Z,1020.32
2017-10-31T04:03:37.326Z,1020.32
2017-10-31T04:04:03.462Z,1020.33
2017-10-31T04:04:29.589Z,1020.29
2017-10-31T04:04:55.734Z,1020.34
2017-10-31T04:05:21.862Z,1020.33
2017-10-31T04:05:47.987Z,1020.37
2017-10-31T04:06:14.120Z,1020.36
2017-10-31T04:06:40.247Z,1020.37
2017-10-31T04:07:06.373Z,1020.37
2017-10-31T04:07:32.495Z,1020.34
2017-10-31T04:07:58.624Z,1020.36
2017-10-31T04:08:24.753Z,1020.35
2017-10-31T04:08:50.889Z,1020.34
2017-10-31T04:09:17.014Z,1020.35
2017-10-31T04:09:43.144Z,1020.34
2017-10-31T04:10:09.269Z,1020.33
2017-10-31T04:10:35.400Z,1020.3
2017-10-31T04:11:01.522Z,1020.3
2017-10-31T04:11:27.657Z,1020.3
2017-10-31T04:11:53.778Z,1020.29
2017-10-31T04:12:19.900Z,1020.29
2017-10-31T04:12:46.031Z,1020.27
2017-10-31T04:13:12.162Z,1020.27
2017-10-31T04:13:38.289Z,1020.29
2017-10-31T04:14:04.412Z,1020.27
2017-10-31T04:14:30.547Z,1020.28
2017-10-31T04:14:56.675Z,1020.3
2017-10-31T04:15:22.805Z,1020.32
2017-10-31T04:15:48.938Z,1020.28
2017-10-31T04:16:15.060Z,1020.26
2017-10-31T04:16:41.189Z,1020.29
2017-10-31T04:17:07.311Z,1020.23
2017-10-31T04:17:33.474Z,1020.26
2017-10-31T04:17:59.597Z,1020.24
2017-10-31T04:18:25.722Z,1020.27
2017-10-31T04:18:51.845Z,1020.26
2017-10-31T04:19:17.966Z,1020.26
2017-10-31T04:19:44.099Z,1020.27
2017-10-31T04:20:10.222Z,1020.25
2017-10-31T04:20:36.351Z,1020.26
2017-10-31T04:21:02.497Z,1020.21
2017-10-31T04:21:28.631Z,1020.23
2017-10-31T04:21:54.762Z,1020.24
2017-10-31T04:22:20.889Z,1020.2
2017-10-31T04:22:47.016Z,1020.22
2017-10-31T04:23:13.165Z,1020.25
2017-10-31T04:23:39.294Z,1020.25
2017-10-31T04:24:05.422Z,1020.24
2017-10-31T04:24:31.554Z,1020.25
2017-10-31T04:24:57.678Z,1020.24
2017-10-31T04:25:23.807Z,1020.22
2017-10-31T04:25:49.927Z,1020.26
2017-10-31T04:26:16.053Z,1020.24
2017-10-31T04:26:42.180Z,1020.23
2017-10-31T04:27:08.307Z,1020.24
2017-10-31T04:27:34.439Z,1020.16
2017-10-31T04:28:00.568Z,1020.2
2017-10-31T04:28:26.688Z,1020.18
2017-10-31T04:28:52.820Z,1020.2
2017-10-31T04:29:18.943Z,1020.17
2017-10-31T04:29:45.079Z,1020.15
2017-10-31T04:30:11.211Z,1020.19
2017-10-31T04:30:37.330Z,1020.19
2017-10-31T04:31:03.456Z,1020.16
2017-10-31T04:31:29.585Z,1020.22
2017-10-31T04:31:55.708Z,1020.23
2017-10-31T04:32:21.839Z,1020.21
2017-10-31T04:32:47.972Z,1020.24
2017-10-31T04:33:14.090Z,1020.21
2017-10-31T04:33:40.223Z,1020.18
2017-10-31T04:34:06.347Z,1020.19
2017-10-31T04:34:32.479Z,1020.19
2017-10-31T04:34:58.610Z,1020.19
2017-10-31T04:35:24.734Z,1020.21
2017-10-31T04:35:50.864Z,1020.22
2017-10-31T04:36:16.987Z,1020.2
2017-10-31T04:36:43.114Z,1020.2
2017-10-31T04:37:09.246Z,1020.2
2017-10-31T04:37:35.383Z,1020.22
2017-10-31T04:38:01.501Z,1020.21
2017-10-31T04:38:27.626Z,1020.19
2017-10-31T04:38:53.760Z,1020.2
2017-10-31T04:39:19.884Z,1020.19
2017-10-31T04:39:46.013Z,1020.17
2017-10-31T04:40:12.141Z,1020.16
2017-10-31T04:40:38.272Z,1020.15
2017-10-31T04:41:04.403Z,1020.13
2017-10-31T04:41:30.527Z,1020.13
2017-10-31T04:41:56.653Z,1020.13
2017-10-31T04:42:22.787Z,1020.16
2017-10-31T04:42:48.918Z,1020.12
2017-10-31T04:43:15.042Z,1020.13
2017-10-31T04:43:41.177Z,1020.07
2017-10-31T04:44:07.304Z,1020.13
2017-10-31T04:44:33.426Z,1020.12
2017-10-31T04:44:59.550Z,1020.1
2017-10-31T04:45:25.678Z,1020.14
2017-10-31T04:45:51.804Z,1020.12
2017-10-31T04:46:17.929Z,1020.15
2017-10-31T04:46:44.056Z,1020.1
2017-10-31T04:47:10.186Z,1020.11
2017-10-31T04:47:36.309Z,1020.11
2017-10-31T04:48:02.432Z,1020.12
2017-10-31T04:48:28.559Z,1020.09
2017-10-31T04:48:54.692Z,1020.13
2017-10-31T04:49:20.822Z,1020.13
2017-10-31T04:49:46.944Z,1020.1
2017-10-31T04:50:13.082Z,1020.13
2017-10-31T04:50:39.191Z,1020.11
2017-10-31T04:51:05.318Z,1020.08
2017-10-31T04:51:31.452Z,1020.11
2017-10-31T04:51:57.579Z,1020.13
2017-10-31T04:52:23.710Z,1020.1
2017-10-31T04:52:49.829Z,1020.11
2017-10-31T04:53:15.957Z,1020.11
2017-10-31T04:53:42.122Z,1020.1
2017-10-31T04:54:08.244Z,1020.1
2017-10-31T04:54:34.371Z,1020.13
2017-10-31T04:55:00.500Z,1020.13
2017-10-31T04:55:26.627Z,1020.11
2017-10-31T04:55:52.753Z,1020.1
2017-10-31T04:56:18.876Z,1020.13
2017-10-31T04:56:45.005Z,1020.09
2017-10-31T04:57:11.135Z,1020.1
2017-10-31T04:57:37.264Z,1020.1
2017-10-31T04:58:03.382Z,1020.12
2017-10-31T04:58:29.515Z,1020.11
2017-10-31T04:58:55.647Z,1020.12
2017-10-31T04:59:21.768Z,1020.11
2017-10-31T04:59:47.896Z,1020.1
2017-10-31T05:00:14.028Z,1020.08
2017-10-31T05:00:40.157Z,1020.1
2017-10-31T05:01:06.283Z,1020.09
2017-10-31T05:01:32.416Z,1020.07
2017-10-31T05:01:58.538Z,1020.05
2017-10-31T05:02:24.666Z,1020.05
2017-10-31T05:02:50.787Z,1020.05
2017-10-31T05:03:16.944Z,1020.08
2017-10-31T05:03:43.073Z,1020.04
2017-10-31T05:04:09.198Z,1020.03
2017-10-31T05:04:35.320Z,1020.02
2017-10-31T05:05:01.454Z,1019.99
2017-10-31T05:05:27.580Z,1020.01
2017-10-31T05:05:53.703Z,1020.01
2017-10-31T05:06:19.829Z,1020.05
2017-10-31T05:06:45.961Z,1020
2017-10-31T05:07:12.084Z,1020.01
2017-10-31T05:07:38.211Z,1020.01
2017-10-31T05:08:04.335Z,1019.98
2017-10-31T05:08:30.462Z,1020.01
2017-10-31T05:08:56.593Z,1019.95
2017-10-31T05:09:22.716Z,1019.98
2017-10-31T05:09:48.840Z,1019.99
2017-10-31T05:10:14.974Z,1019.96
2017-10-31T05:10:41.098Z,1019.98
2017-10-31T05:11:07.232Z,1019.99
2017-10-31T05:11:33.376Z,1019.98
2017-10-31T05:11:59.512Z,1019.98
2017-10-31T05:12:25.643Z,1019.98
2017-10-31T05:12:51.765Z,1020
2017-10-31T05:13:17.891Z,1019.99
2017-10-31T05:13:44.026Z,1020
2017-10-31T05:14:10.156Z,1020
2017-10-31T05:14:36.287Z,1020.02
2017-10-31T05:15:02.411Z,1020.01
2017-10-31T05:15:28.534Z,1020.02
2017-10-31T05:15:54.668Z,1020.01
2017-10-31T05:16:20.793Z,1020.02
2017-10-31T05:16:46.918Z,1019.98
2017-10-31T05:17:13.049Z,1020
2017-10-31T05:17:39.175Z,1019.98